Osteen, Florida
Current Conditions -  °F | °C
As of 5:53 AM on Friday 31 Oct 2014 (Local Time) from KSFB Reporting Station
Overcast Overcast  
Wind Chill: 66°   Ceiling: 6000
Heat Index: 66°   Visibility: 10mi
Dew Point: 63°   Wind: 3mph
Humidity: 90%   Direction: 330°NNW
Pressure: 29.84"   Gusts: NA
Location:  28.85°N, 81.16°W
Report Text: KSFB 310953Z AUTO 33003KT 10SM FEW044 BKN060 OVC080 19/17 A2984 RMK AO2 SLP103 T01890172
Loading
Personal Weather Stations






























Interactive Weather Map
Tropical Storm Tracking
New forecast layout! Learn more

10-Day Weather Forecast

Advertisements
Track Severe Weather on mobile